sensor_id;sensor_type;location;lat;lon;timestamp;P1;durP1;ratioP1;P2;durP2;ratioP2
64667;SDS011;51077;42.716;23.344;2023-04-22T00:00:41;12.53;;;7.83;;
64667;SDS011;51077;42.716;23.344;2023-04-22T00:03:06;11.70;;;7.90;;
64667;SDS011;51077;42.716;23.344;2023-04-22T00:05:32;12.63;;;8.10;;
64667;SDS011;51077;42.716;23.344;2023-04-22T00:07:58;11.37;;;7.93;;
64667;SDS011;51077;42.716;23.344;2023-04-22T00:10:23;13.37;;;7.97;;
64667;SDS011;51077;42.716;23.344;2023-04-22T00:12:49;13.07;;;8.33;;
64667;SDS011;51077;42.716;23.344;2023-04-22T00:15:14;13.37;;;7.93;;
64667;SDS011;51077;42.716;23.344;2023-04-22T00:17:42;12.35;;;7.65;;
64667;SDS011;51077;42.716;23.344;2023-04-22T00:20:07;13.80;;;7.83;;
64667;SDS011;51077;42.716;23.344;2023-04-22T00:22:35;10.55;;;8.02;;
64667;SDS011;51077;42.716;23.344;2023-04-22T00:25:00;11.03;;;7.73;;
64667;SDS011;51077;42.716;23.344;2023-04-22T00:27:25;12.60;;;8.60;;
64667;SDS011;51077;42.716;23.344;2023-04-22T00:29:51;13.40;;;7.97;;
64667;SDS011;51077;42.716;23.344;2023-04-22T00:32:16;9.83;;;7.10;;
64667;SDS011;51077;42.716;23.344;2023-04-22T00:34:42;12.80;;;7.70;;
64667;SDS011;51077;42.716;23.344;2023-04-22T00:37:07;12.97;;;7.90;;
64667;SDS011;51077;42.716;23.344;2023-04-22T00:39:32;9.97;;;7.47;;
64667;SDS011;51077;42.716;23.344;2023-04-22T00:41:58;10.83;;;7.30;;
64667;SDS011;51077;42.716;23.344;2023-04-22T00:44:27;10.52;;;7.32;;
64667;SDS011;51077;42.716;23.344;2023-04-22T00:46:53;12.73;;;7.53;;
64667;SDS011;51077;42.716;23.344;2023-04-22T00:49:19;11.43;;;8.10;;
64667;SDS011;51077;42.716;23.344;2023-04-22T00:51:45;12.60;;;7.47;;
64667;SDS011;51077;42.716;23.344;2023-04-22T00:54:10;12.70;;;8.10;;
64667;SDS011;51077;42.716;23.344;2023-04-22T00:56:36;10.33;;;7.80;;
64667;SDS011;51077;42.716;23.344;2023-04-22T00:59:02;11.45;;;8.38;;
64667;SDS011;51077;42.716;23.344;2023-04-22T01:01:28;11.07;;;7.88;;
64667;SDS011;51077;42.716;23.344;2023-04-22T01:03:54;12.10;;;8.52;;
64667;SDS011;51077;42.716;23.344;2023-04-22T01:06:21;14.98;;;7.80;;
64667;SDS011;51077;42.716;23.344;2023-04-22T01:08:48;15.43;;;8.48;;
64667;SDS011;51077;42.716;23.344;2023-04-22T01:11:13;13.00;;;9.10;;
64667;SDS011;51077;42.716;23.344;2023-04-22T01:13:39;13.37;;;8.50;;
64667;SDS011;51077;42.716;23.344;2023-04-22T01:16:05;14.00;;;8.38;;
64667;SDS011;51077;42.716;23.344;2023-04-22T01:18:32;12.50;;;8.18;;
64667;SDS011;51077;42.716;23.344;2023-04-22T01:20:59;13.68;;;8.25;;
64667;SDS011;51077;42.716;23.344;2023-04-22T01:23:26;14.10;;;8.38;;
64667;SDS011;51077;42.716;23.344;2023-04-22T01:25:51;13.97;;;7.70;;
64667;SDS011;51077;42.716;23.344;2023-04-22T01:28:17;11.83;;;7.90;;
64667;SDS011;51077;42.716;23.344;2023-04-22T01:30:43;12.93;;;8.83;;
64667;SDS011;51077;42.716;23.344;2023-04-22T01:33:09;12.87;;;7.73;;
64667;SDS011;51077;42.716;23.344;2023-04-22T01:35:35;11.68;;;7.72;;
64667;SDS011;51077;42.716;23.344;2023-04-22T01:38:05;10.73;;;7.83;;
64667;SDS011;51077;42.716;23.344;2023-04-22T01:40:32;11.55;;;8.45;;
64667;SDS011;51077;42.716;23.344;2023-04-22T01:42:58;12.73;;;8.32;;
64667;SDS011;51077;42.716;23.344;2023-04-22T01:45:25;12.00;;;8.25;;
64667;SDS011;51077;42.716;23.344;2023-04-22T01:47:51;12.82;;;7.68;;
64667;SDS011;51077;42.716;23.344;2023-04-22T01:50:17;12.65;;;7.50;;
64667;SDS011;51077;42.716;23.344;2023-04-22T01:52:42;11.60;;;7.77;;
64667;SDS011;51077;42.716;23.344;2023-04-22T01:55:08;11.47;;;8.10;;
64667;SDS011;51077;42.716;23.344;2023-04-22T01:57:34;12.02;;;8.13;;
64667;SDS011;51077;42.716;23.344;2023-04-22T01:59:59;10.63;;;7.67;;
64667;SDS011;51077;42.716;23.344;2023-04-22T02:02:25;11.23;;;7.43;;
64667;SDS011;51077;42.716;23.344;2023-04-22T02:04:50;11.03;;;7.53;;
64667;SDS011;51077;42.716;23.344;2023-04-22T02:07:16;11.23;;;7.60;;
64667;SDS011;51077;42.716;23.344;2023-04-22T02:09:41;14.07;;;8.73;;
64667;SDS011;51077;42.716;23.344;2023-04-22T02:12:07;12.70;;;7.70;;
64667;SDS011;51077;42.716;23.344;2023-04-22T02:14:32;12.30;;;8.30;;
64667;SDS011;51077;42.716;23.344;2023-04-22T02:16:58;13.40;;;8.47;;
64667;SDS011;51077;42.716;23.344;2023-04-22T02:19:23;11.90;;;7.97;;
64667;SDS011;51077;42.716;23.344;2023-04-22T02:21:49;11.53;;;7.03;;
64667;SDS011;51077;42.716;23.344;2023-04-22T02:24:14;11.10;;;7.63;;
64667;SDS011;51077;42.716;23.344;2023-04-22T02:26:40;10.70;;;7.53;;
64667;SDS011;51077;42.716;23.344;2023-04-22T02:29:07;10.73;;;7.05;;
64667;SDS011;51077;42.716;23.344;2023-04-22T02:31:32;11.23;;;6.50;;
64667;SDS011;51077;42.716;23.344;2023-04-22T02:33:58;12.17;;;6.87;;
64667;SDS011;51077;42.716;23.344;2023-04-22T02:36:23;10.20;;;6.60;;
64667;SDS011;51077;42.716;23.344;2023-04-22T02:38:48;11.93;;;7.37;;
64667;SDS011;51077;42.716;23.344;2023-04-22T02:41:14;9.57;;;6.70;;
64667;SDS011;51077;42.716;23.344;2023-04-22T02:43:39;10.80;;;7.13;;
64667;SDS011;51077;42.716;23.344;2023-04-22T02:46:09;10.40;;;6.68;;
64667;SDS011;51077;42.716;23.344;2023-04-22T02:48:37;10.23;;;6.85;;
64667;SDS011;51077;42.716;23.344;2023-04-22T02:51:03;9.40;;;6.35;;
64667;SDS011;51077;42.716;23.344;2023-04-22T02:53:28;12.07;;;6.93;;
64667;SDS011;51077;42.716;23.344;2023-04-22T02:55:54;10.30;;;6.40;;
64667;SDS011;51077;42.716;23.344;2023-04-22T02:58:20;10.40;;;6.28;;
64667;SDS011;51077;42.716;23.344;2023-04-22T03:00:46;10.60;;;6.53;;
64667;SDS011;51077;42.716;23.344;2023-04-22T03:03:11;12.10;;;5.93;;
64667;SDS011;51077;42.716;23.344;2023-04-22T03:05:37;9.93;;;7.10;;
64667;SDS011;51077;42.716;23.344;2023-04-22T03:08:02;9.73;;;6.27;;
64667;SDS011;51077;42.716;23.344;2023-04-22T03:10:28;9.87;;;6.07;;
64667;SDS011;51077;42.716;23.344;2023-04-22T03:12:53;10.87;;;7.00;;
64667;SDS011;51077;42.716;23.344;2023-04-22T03:15:18;11.57;;;7.97;;
64667;SDS011;51077;42.716;23.344;2023-04-22T03:17:44;12.83;;;8.10;;
64667;SDS011;51077;42.716;23.344;2023-04-22T03:20:09;12.10;;;7.77;;
64667;SDS011;51077;42.716;23.344;2023-04-22T03:22:35;10.55;;;7.35;;
64667;SDS011;51077;42.716;23.344;2023-04-22T03:25:01;11.60;;;7.30;;
64667;SDS011;51077;42.716;23.344;2023-04-22T03:27:27;13.20;;;8.15;;
64667;SDS011;51077;42.716;23.344;2023-04-22T03:29:52;11.43;;;7.10;;
64667;SDS011;51077;42.716;23.344;2023-04-22T03:32:18;11.57;;;6.70;;
64667;SDS011;51077;42.716;23.344;2023-04-22T03:34:43;10.43;;;6.80;;
64667;SDS011;51077;42.716;23.344;2023-04-22T03:37:09;10.97;;;7.20;;
64667;SDS011;51077;42.716;23.344;2023-04-22T03:39:34;11.47;;;7.87;;
64667;SDS011;51077;42.716;23.344;2023-04-22T03:41:59;11.87;;;7.37;;
64667;SDS011;51077;42.716;23.344;2023-04-22T03:44:25;10.00;;;7.07;;
64667;SDS011;51077;42.716;23.344;2023-04-22T03:46:51;12.07;;;7.57;;
64667;SDS011;51077;42.716;23.344;2023-04-22T03:49:16;13.30;;;7.70;;
64667;SDS011;51077;42.716;23.344;2023-04-22T03:51:41;9.90;;;6.57;;
64667;SDS011;51077;42.716;23.344;2023-04-22T03:54:07;12.30;;;7.73;;
64667;SDS011;51077;42.716;23.344;2023-04-22T03:56:33;13.67;;;8.13;;
64667;SDS011;51077;42.716;23.344;2023-04-22T03:58:58;12.67;;;7.30;;
64667;SDS011;51077;42.716;23.344;2023-04-22T04:01:23;14.07;;;7.40;;
64667;SDS011;51077;42.716;23.344;2023-04-22T04:03:49;10.27;;;7.63;;
64667;SDS011;51077;42.716;23.344;2023-04-22T04:06:14;12.97;;;7.87;;
64667;SDS011;51077;42.716;23.344;2023-04-22T04:08:40;11.20;;;7.57;;
64667;SDS011;51077;42.716;23.344;2023-04-22T04:11:06;12.10;;;7.67;;
64667;SDS011;51077;42.716;23.344;2023-04-22T04:13:33;12.55;;;7.80;;
64667;SDS011;51077;42.716;23.344;2023-04-22T04:15:58;12.50;;;7.77;;
64667;SDS011;51077;42.716;23.344;2023-04-22T04:18:24;12.60;;;8.53;;
64667;SDS011;51077;42.716;23.344;2023-04-22T04:20:50;15.32;;;7.82;;
64667;SDS011;51077;42.716;23.344;2023-04-22T04:23:16;13.07;;;8.87;;
64667;SDS011;51077;42.716;23.344;2023-04-22T04:25:41;11.97;;;8.37;;
64667;SDS011;51077;42.716;23.344;2023-04-22T04:28:08;12.77;;;8.15;;
64667;SDS011;51077;42.716;23.344;2023-04-22T04:30:36;11.85;;;7.90;;
64667;SDS011;51077;42.716;23.344;2023-04-22T04:33:02;13.77;;;8.13;;
64667;SDS011;51077;42.716;23.344;2023-04-22T04:35:33;13.40;;;9.13;;
64667;SDS011;51077;42.716;23.344;2023-04-22T04:37:59;12.55;;;9.18;;
64667;SDS011;51077;42.716;23.344;2023-04-22T04:40:26;16.70;;;10.05;;
64667;SDS011;51077;42.716;23.344;2023-04-22T04:42:53;12.73;;;8.85;;
64667;SDS011;51077;42.716;23.344;2023-04-22T04:45:19;17.65;;;8.90;;
64667;SDS011;51077;42.716;23.344;2023-04-22T04:47:46;16.02;;;9.30;;
64667;SDS011;51077;42.716;23.344;2023-04-22T04:50:14;12.95;;;9.02;;
64667;SDS011;51077;42.716;23.344;2023-04-22T04:52:40;16.37;;;9.17;;
64667;SDS011;51077;42.716;23.344;2023-04-22T04:55:05;15.33;;;8.57;;
64667;SDS011;51077;42.716;23.344;2023-04-22T04:57:31;12.07;;;8.17;;
64667;SDS011;51077;42.716;23.344;2023-04-22T04:59:56;12.63;;;7.20;;
64667;SDS011;51077;42.716;23.344;2023-04-22T05:02:22;11.53;;;8.03;;
64667;SDS011;51077;42.716;23.344;2023-04-22T05:04:47;12.70;;;7.60;;
64667;SDS011;51077;42.716;23.344;2023-04-22T05:07:13;12.07;;;7.90;;
64667;SDS011;51077;42.716;23.344;2023-04-22T05:09:38;12.53;;;7.60;;
64667;SDS011;51077;42.716;23.344;2023-04-22T05:12:04;14.57;;;8.00;;
64667;SDS011;51077;42.716;23.344;2023-04-22T05:14:29;11.13;;;6.90;;
64667;SDS011;51077;42.716;23.344;2023-04-22T05:16:55;14.17;;;7.50;;
64667;SDS011;51077;42.716;23.344;2023-04-22T05:19:20;19.30;;;8.50;;
64667;SDS011;51077;42.716;23.344;2023-04-22T05:21:45;13.70;;;7.43;;
64667;SDS011;51077;42.716;23.344;2023-04-22T05:24:11;15.53;;;7.17;;
64667;SDS011;51077;42.716;23.344;2023-04-22T05:26:36;11.00;;;7.10;;
64667;SDS011;51077;42.716;23.344;2023-04-22T05:29:02;10.33;;;7.27;;
64667;SDS011;51077;42.716;23.344;2023-04-22T05:31:27;11.53;;;7.30;;
64667;SDS011;51077;42.716;23.344;2023-04-22T05:33:53;11.30;;;6.63;;
64667;SDS011;51077;42.716;23.344;2023-04-22T05:36:18;12.83;;;6.87;;
64667;SDS011;51077;42.716;23.344;2023-04-22T05:38:44;10.00;;;6.47;;
64667;SDS011;51077;42.716;23.344;2023-04-22T05:41:09;8.63;;;5.90;;
64667;SDS011;51077;42.716;23.344;2023-04-22T05:43:35;11.23;;;7.00;;
64667;SDS011;51077;42.716;23.344;2023-04-22T05:46:00;12.90;;;6.63;;
64667;SDS011;51077;42.716;23.344;2023-04-22T05:48:26;8.93;;;5.73;;
64667;SDS011;51077;42.716;23.344;2023-04-22T05:50:51;10.47;;;6.23;;
64667;SDS011;51077;42.716;23.344;2023-04-22T05:53:18;11.52;;;6.15;;
64667;SDS011;51077;42.716;23.344;2023-04-22T05:55:43;9.80;;;6.07;;
64667;SDS011;51077;42.716;23.344;2023-04-22T05:58:09;10.17;;;6.10;;
64667;SDS011;51077;42.716;23.344;2023-04-22T06:00:34;10.30;;;6.27;;
64667;SDS011;51077;42.716;23.344;2023-04-22T06:03:00;9.53;;;5.73;;
64667;SDS011;51077;42.716;23.344;2023-04-22T06:05:25;9.20;;;6.10;;
64667;SDS011;51077;42.716;23.344;2023-04-22T06:07:51;10.53;;;5.90;;
64667;SDS011;51077;42.716;23.344;2023-04-22T06:10:18;9.15;;;5.70;;
64667;SDS011;51077;42.716;23.344;2023-04-22T06:12:44;9.37;;;5.70;;
64667;SDS011;51077;42.716;23.344;2023-04-22T06:15:09;9.63;;;5.87;;
64667;SDS011;51077;42.716;23.344;2023-04-22T06:17:36;9.07;;;5.15;;
64667;SDS011;51077;42.716;23.344;2023-04-22T06:20:01;9.50;;;5.50;;
64667;SDS011;51077;42.716;23.344;2023-04-22T06:22:27;9.45;;;5.20;;
64667;SDS011;51077;42.716;23.344;2023-04-22T06:24:52;8.17;;;5.87;;
64667;SDS011;51077;42.716;23.344;2023-04-22T06:27:18;9.63;;;4.87;;
64667;SDS011;51077;42.716;23.344;2023-04-22T06:29:43;8.43;;;5.43;;
64667;SDS011;51077;42.716;23.344;2023-04-22T06:32:09;10.17;;;5.63;;
64667;SDS011;51077;42.716;23.344;2023-04-22T06:34:34;7.50;;;4.97;;
64667;SDS011;51077;42.716;23.344;2023-04-22T06:37:00;8.07;;;4.70;;
64667;SDS011;51077;42.716;23.344;2023-04-22T06:39:25;8.10;;;4.93;;
64667;SDS011;51077;42.716;23.344;2023-04-22T06:41:50;7.53;;;4.50;;
64667;SDS011;51077;42.716;23.344;2023-04-22T06:44:16;9.23;;;4.77;;
64667;SDS011;51077;42.716;23.344;2023-04-22T06:46:41;9.37;;;4.87;;
64667;SDS011;51077;42.716;23.344;2023-04-22T06:49:06;7.93;;;4.73;;
64667;SDS011;51077;42.716;23.344;2023-04-22T06:51:32;6.90;;;4.70;;
64667;SDS011;51077;42.716;23.344;2023-04-22T06:53:57;7.40;;;4.57;;
64667;SDS011;51077;42.716;23.344;2023-04-22T06:56:23;9.30;;;4.60;;
64667;SDS011;51077;42.716;23.344;2023-04-22T06:58:48;7.50;;;4.30;;
64667;SDS011;51077;42.716;23.344;2023-04-22T07:01:14;7.93;;;4.27;;
64667;SDS011;51077;42.716;23.344;2023-04-22T07:03:39;7.53;;;4.37;;
64667;SDS011;51077;42.716;23.344;2023-04-22T07:06:05;9.30;;;4.70;;
64667;SDS011;51077;42.716;23.344;2023-04-22T07:08:30;6.70;;;4.33;;
64667;SDS011;51077;42.716;23.344;2023-04-22T07:10:56;6.73;;;4.43;;
64667;SDS011;51077;42.716;23.344;2023-04-22T07:13:22;7.87;;;4.10;;
64667;SDS011;51077;42.716;23.344;2023-04-22T07:15:47;10.30;;;4.47;;
64667;SDS011;51077;42.716;23.344;2023-04-22T07:18:12;7.13;;;4.07;;
64667;SDS011;51077;42.716;23.344;2023-04-22T07:20:38;11.07;;;4.47;;
64667;SDS011;51077;42.716;23.344;2023-04-22T07:23:03;5.17;;;3.57;;
64667;SDS011;51077;42.716;23.344;2023-04-22T07:25:29;5.10;;;3.50;;
64667;SDS011;51077;42.716;23.344;2023-04-22T07:27:54;11.27;;;4.53;;
64667;SDS011;51077;42.716;23.344;2023-04-22T07:30:20;5.57;;;3.67;;
64667;SDS011;51077;42.716;23.344;2023-04-22T07:32:45;6.67;;;4.57;;
64667;SDS011;51077;42.716;23.344;2023-04-22T07:35:10;5.43;;;3.93;;
64667;SDS011;51077;42.716;23.344;2023-04-22T07:37:36;5.20;;;3.50;;
64667;SDS011;51077;42.716;23.344;2023-04-22T07:40:01;7.07;;;4.50;;
64667;SDS011;51077;42.716;23.344;2023-04-22T07:42:27;6.13;;;3.50;;
64667;SDS011;51077;42.716;23.344;2023-04-22T07:44:52;4.80;;;3.50;;
64667;SDS011;51077;42.716;23.344;2023-04-22T07:47:18;7.13;;;3.77;;
64667;SDS011;51077;42.716;23.344;2023-04-22T07:49:43;6.33;;;3.90;;
64667;SDS011;51077;42.716;23.344;2023-04-22T07:52:09;6.87;;;3.53;;
64667;SDS011;51077;42.716;23.344;2023-04-22T07:54:35;6.00;;;3.70;;
64667;SDS011;51077;42.716;23.344;2023-04-22T07:57:00;6.00;;;3.17;;
64667;SDS011;51077;42.716;23.344;2023-04-22T07:59:25;8.27;;;3.43;;
64667;SDS011;51077;42.716;23.344;2023-04-22T08:01:51;6.40;;;3.10;;
64667;SDS011;51077;42.716;23.344;2023-04-22T08:04:17;7.87;;;3.40;;
64667;SDS011;51077;42.716;23.344;2023-04-22T08:06:42;6.27;;;2.93;;
64667;SDS011;51077;42.716;23.344;2023-04-22T08:09:08;6.60;;;3.37;;
64667;SDS011;51077;42.716;23.344;2023-04-22T08:11:34;6.30;;;3.65;;
64667;SDS011;51077;42.716;23.344;2023-04-22T08:14:00;6.90;;;3.00;;
64667;SDS011;51077;42.716;23.344;2023-04-22T08:16:25;5.13;;;3.47;;
64667;SDS011;51077;42.716;23.344;2023-04-22T08:18:51;5.77;;;2.97;;
64667;SDS011;51077;42.716;23.344;2023-04-22T08:21:16;6.53;;;3.20;;
64667;SDS011;51077;42.716;23.344;2023-04-22T08:23:41;9.17;;;3.00;;
64667;SDS011;51077;42.716;23.344;2023-04-22T08:26:07;4.87;;;2.80;;
64667;SDS011;51077;42.716;23.344;2023-04-22T08:28:33;8.07;;;3.20;;
64667;SDS011;51077;42.716;23.344;2023-04-22T08:30:59;7.60;;;2.83;;
64667;SDS011;51077;42.716;23.344;2023-04-22T08:33:24;6.40;;;2.40;;
64667;SDS011;51077;42.716;23.344;2023-04-22T08:35:50;4.10;;;2.60;;
64667;SDS011;51077;42.716;23.344;2023-04-22T08:38:18;5.40;;;2.67;;
64667;SDS011;51077;42.716;23.344;2023-04-22T08:40:43;5.47;;;3.08;;
64667;SDS011;51077;42.716;23.344;2023-04-22T08:43:10;6.93;;;2.80;;
64667;SDS011;51077;42.716;23.344;2023-04-22T08:45:37;4.72;;;2.50;;
64667;SDS011;51077;42.716;23.344;2023-04-22T08:48:03;5.55;;;3.00;;
64667;SDS011;51077;42.716;23.344;2023-04-22T08:50:29;4.95;;;2.92;;
64667;SDS011;51077;42.716;23.344;2023-04-22T08:52:56;5.93;;;3.47;;
64667;SDS011;51077;42.716;23.344;2023-04-22T08:55:22;4.83;;;2.80;;
64667;SDS011;51077;42.716;23.344;2023-04-22T08:57:47;4.60;;;2.27;;
64667;SDS011;51077;42.716;23.344;2023-04-22T09:00:14;4.97;;;3.00;;
64667;SDS011;51077;42.716;23.344;2023-04-22T09:02:40;5.63;;;3.05;;
64667;SDS011;51077;42.716;23.344;2023-04-22T09:05:09;6.60;;;2.50;;
64667;SDS011;51077;42.716;23.344;2023-04-22T09:07:35;4.38;;;2.33;;
64667;SDS011;51077;42.716;23.344;2023-04-22T09:10:02;4.70;;;2.63;;
64667;SDS011;51077;42.716;23.344;2023-04-22T09:12:28;6.00;;;2.87;;
64667;SDS011;51077;42.716;23.344;2023-04-22T09:14:54;6.27;;;2.50;;
64667;SDS011;51077;42.716;23.344;2023-04-22T09:17:31;5.38;;;2.63;;
64667;SDS011;51077;42.716;23.344;2023-04-22T09:19:57;4.03;;;2.63;;
64667;SDS011;51077;42.716;23.344;2023-04-22T09:22:29;4.97;;;2.25;;
64667;SDS011;51077;42.716;23.344;2023-04-22T09:25:15;3.95;;;2.30;;
64667;SDS011;51077;42.716;23.344;2023-04-22T09:27:54;6.57;;;2.25;;
64667;SDS011;51077;42.716;23.344;2023-04-22T09:30:31;6.45;;;2.53;;
64667;SDS011;51077;42.716;23.344;2023-04-22T09:32:58;5.28;;;2.20;;
64667;SDS011;51077;42.716;23.344;2023-04-22T09:35:29;4.75;;;2.67;;
64667;SDS011;51077;42.716;23.344;2023-04-22T09:37:56;5.18;;;2.40;;
64667;SDS011;51077;42.716;23.344;2023-04-22T09:40:23;4.38;;;2.53;;
64667;SDS011;51077;42.716;23.344;2023-04-22T09:42:50;3.63;;;2.47;;
64667;SDS011;51077;42.716;23.344;2023-04-22T09:47:52;4.88;;;2.72;;
64667;SDS011;51077;42.716;23.344;2023-04-22T09:50:20;7.53;;;2.70;;
64667;SDS011;51077;42.716;23.344;2023-04-22T09:52:52;5.18;;;2.20;;
64667;SDS011;51077;42.716;23.344;2023-04-22T09:55:20;4.60;;;2.35;;
64667;SDS011;51077;42.716;23.344;2023-04-22T09:57:53;4.47;;;2.00;;
64667;SDS011;51077;42.716;23.344;2023-04-22T10:00:21;4.47;;;2.20;;
64667;SDS011;51077;42.716;23.344;2023-04-22T10:02:48;3.80;;;2.03;;
64667;SDS011;51077;42.716;23.344;2023-04-22T10:05:14;7.37;;;2.00;;
64667;SDS011;51077;42.716;23.344;2023-04-22T10:07:39;3.67;;;1.73;;
64667;SDS011;51077;42.716;23.344;2023-04-22T10:10:07;6.88;;;1.80;;
64667;SDS011;51077;42.716;23.344;2023-04-22T10:12:34;4.82;;;1.75;;
64667;SDS011;51077;42.716;23.344;2023-04-22T10:15:00;5.25;;;1.70;;
64667;SDS011;51077;42.716;23.344;2023-04-22T10:17:27;3.40;;;1.67;;
64667;SDS011;51077;42.716;23.344;2023-04-22T10:19:58;3.13;;;1.45;;
64667;SDS011;51077;42.716;23.344;2023-04-22T10:22:28;2.72;;;1.60;;
64667;SDS011;51077;42.716;23.344;2023-04-22T10:24:55;3.35;;;1.50;;
64667;SDS011;51077;42.716;23.344;2023-04-22T10:27:22;3.65;;;1.63;;
64667;SDS011;51077;42.716;23.344;2023-04-22T10:29:48;2.75;;;1.38;;
64667;SDS011;51077;42.716;23.344;2023-04-22T10:34:42;4.75;;;1.85;;
64667;SDS011;51077;42.716;23.344;2023-04-22T10:37:09;3.70;;;1.52;;
64667;SDS011;51077;42.716;23.344;2023-04-22T10:39:36;3.05;;;1.20;;
64667;SDS011;51077;42.716;23.344;2023-04-22T10:47:28;3.60;;;1.20;;
64667;SDS011;51077;42.716;23.344;2023-04-22T11:04:17;3.37;;;1.13;;
64667;SDS011;51077;42.716;23.344;2023-04-22T11:06:44;2.20;;;1.30;;
64667;SDS011;51077;42.716;23.344;2023-04-22T11:09:09;2.23;;;1.10;;
64667;SDS011;51077;42.716;23.344;2023-04-22T11:11:40;3.60;;;1.10;;
64667;SDS011;51077;42.716;23.344;2023-04-22T11:14:06;2.97;;;1.30;;
64667;SDS011;51077;42.716;23.344;2023-04-22T11:16:33;2.83;;;1.07;;
64667;SDS011;51077;42.716;23.344;2023-04-22T11:18:59;5.30;;;1.20;;
64667;SDS011;51077;42.716;23.344;2023-04-22T11:21:25;2.50;;;1.33;;
64667;SDS011;51077;42.716;23.344;2023-04-22T11:23:51;3.27;;;1.00;;
64667;SDS011;51077;42.716;23.344;2023-04-22T11:26:17;1.80;;;1.10;;
64667;SDS011;51077;42.716;23.344;2023-04-22T11:28:46;2.00;;;0.90;;
64667;SDS011;51077;42.716;23.344;2023-04-22T11:31:12;4.30;;;1.47;;
64667;SDS011;51077;42.716;23.344;2023-04-22T11:33:38;2.70;;;1.40;;
64667;SDS011;51077;42.716;23.344;2023-04-22T11:36:14;5.30;;;1.30;;
64667;SDS011;51077;42.716;23.344;2023-04-22T11:38:40;2.10;;;1.10;;
64667;SDS011;51077;42.716;23.344;2023-04-22T11:41:05;2.80;;;1.23;;
64667;SDS011;51077;42.716;23.344;2023-04-22T11:43:30;2.90;;;1.20;;
64667;SDS011;51077;42.716;23.344;2023-04-22T11:45:56;4.03;;;1.30;;
64667;SDS011;51077;42.716;23.344;2023-04-22T11:48:21;1.90;;;0.97;;
64667;SDS011;51077;42.716;23.344;2023-04-22T11:50:47;2.90;;;1.30;;
64667;SDS011;51077;42.716;23.344;2023-04-22T11:53:17;3.87;;;1.00;;
64667;SDS011;51077;42.716;23.344;2023-04-22T11:55:48;3.53;;;1.00;;
64667;SDS011;51077;42.716;23.344;2023-04-22T11:58:15;3.33;;;1.73;;
64667;SDS011;51077;42.716;23.344;2023-04-22T12:00:47;2.30;;;1.17;;
64667;SDS011;51077;42.716;23.344;2023-04-22T12:03:26;3.63;;;1.20;;
64667;SDS011;51077;42.716;23.344;2023-04-22T12:06:00;3.10;;;1.20;;
64667;SDS011;51077;42.716;23.344;2023-04-22T12:08:31;3.23;;;1.00;;
64667;SDS011;51077;42.716;23.344;2023-04-22T12:10:59;3.80;;;1.90;;
64667;SDS011;51077;42.716;23.344;2023-04-22T12:13:46;3.63;;;1.50;;
64667;SDS011;51077;42.716;23.344;2023-04-22T12:16:12;4.27;;;1.37;;
64667;SDS011;51077;42.716;23.344;2023-04-22T12:18:40;4.77;;;1.43;;
64667;SDS011;51077;42.716;23.344;2023-04-22T12:21:16;3.27;;;1.30;;
64667;SDS011;51077;42.716;23.344;2023-04-22T12:26:13;3.00;;;1.10;;
64667;SDS011;51077;42.716;23.344;2023-04-22T12:28:40;3.77;;;1.67;;
64667;SDS011;51077;42.716;23.344;2023-04-22T12:31:07;4.30;;;1.73;;
64667;SDS011;51077;42.716;23.344;2023-04-22T12:33:33;5.27;;;1.80;;
64667;SDS011;51077;42.716;23.344;2023-04-22T12:36:00;3.73;;;1.80;;
64667;SDS011;51077;42.716;23.344;2023-04-22T12:38:25;4.23;;;1.60;;
64667;SDS011;51077;42.716;23.344;2023-04-22T12:40:51;3.33;;;1.50;;
64667;SDS011;51077;42.716;23.344;2023-04-22T12:43:17;4.50;;;1.63;;
64667;SDS011;51077;42.716;23.344;2023-04-22T12:45:42;3.47;;;1.63;;
64667;SDS011;51077;42.716;23.344;2023-04-22T12:48:08;3.10;;;1.30;;
64667;SDS011;51077;42.716;23.344;2023-04-22T12:50:33;4.60;;;1.60;;
64667;SDS011;51077;42.716;23.344;2023-04-22T12:52:59;6.43;;;1.73;;
64667;SDS011;51077;42.716;23.344;2023-04-22T12:55:24;3.47;;;1.33;;
64667;SDS011;51077;42.716;23.344;2023-04-22T12:57:50;5.50;;;1.67;;
64667;SDS011;51077;42.716;23.344;2023-04-22T13:00:16;4.23;;;1.40;;
64667;SDS011;51077;42.716;23.344;2023-04-22T13:02:43;2.70;;;1.23;;
64667;SDS011;51077;42.716;23.344;2023-04-22T13:05:11;2.77;;;1.50;;
64667;SDS011;51077;42.716;23.344;2023-04-22T13:07:37;3.83;;;1.77;;
64667;SDS011;51077;42.716;23.344;2023-04-22T13:10:04;4.23;;;1.33;;
64667;SDS011;51077;42.716;23.344;2023-04-22T13:12:30;2.47;;;1.23;;
64667;SDS011;51077;42.716;23.344;2023-04-22T13:14:56;2.67;;;1.40;;
64667;SDS011;51077;42.716;23.344;2023-04-22T13:17:22;1.90;;;1.20;;
64667;SDS011;51077;42.716;23.344;2023-04-22T13:19:47;1.90;;;0.90;;
64667;SDS011;51077;42.716;23.344;2023-04-22T13:22:14;2.80;;;1.47;;
64667;SDS011;51077;42.716;23.344;2023-04-22T13:24:40;3.23;;;1.20;;
64667;SDS011;51077;42.716;23.344;2023-04-22T13:27:05;2.27;;;1.10;;
64667;SDS011;51077;42.716;23.344;2023-04-22T13:29:31;4.40;;;1.10;;
64667;SDS011;51077;42.716;23.344;2023-04-22T13:31:57;2.60;;;1.33;;
64667;SDS011;51077;42.716;23.344;2023-04-22T13:34:23;2.93;;;1.27;;
64667;SDS011;51077;42.716;23.344;2023-04-22T13:36:48;4.93;;;1.50;;
64667;SDS011;51077;42.716;23.344;2023-04-22T13:39:13;3.03;;;1.10;;
64667;SDS011;51077;42.716;23.344;2023-04-22T13:41:39;2.43;;;1.20;;
64667;SDS011;51077;42.716;23.344;2023-04-22T13:44:05;3.23;;;1.60;;
64667;SDS011;51077;42.716;23.344;2023-04-22T13:46:31;2.43;;;1.20;;
64667;SDS011;51077;42.716;23.344;2023-04-22T13:48:56;2.30;;;1.40;;
64667;SDS011;51077;42.716;23.344;2023-04-22T13:51:22;2.72;;;1.30;;
64667;SDS011;51077;42.716;23.344;2023-04-22T13:53:48;3.20;;;1.10;;
64667;SDS011;51077;42.716;23.344;2023-04-22T13:56:13;2.83;;;1.47;;
64667;SDS011;51077;42.716;23.344;2023-04-22T13:58:39;10.83;;;3.10;;
64667;SDS011;51077;42.716;23.344;2023-04-22T14:01:05;12.00;;;2.57;;
64667;SDS011;51077;42.716;23.344;2023-04-22T14:03:32;6.00;;;2.00;;
64667;SDS011;51077;42.716;23.344;2023-04-22T14:05:57;5.60;;;2.03;;
64667;SDS011;51077;42.716;23.344;2023-04-22T14:08:23;3.40;;;1.87;;
64667;SDS011;51077;42.716;23.344;2023-04-22T14:10:48;4.43;;;1.90;;
64667;SDS011;51077;42.716;23.344;2023-04-22T14:13:13;3.90;;;1.80;;
64667;SDS011;51077;42.716;23.344;2023-04-22T14:15:39;3.27;;;1.90;;
64667;SDS011;51077;42.716;23.344;2023-04-22T14:18:04;5.93;;;2.07;;
64667;SDS011;51077;42.716;23.344;2023-04-22T14:20:30;3.83;;;1.60;;
64667;SDS011;51077;42.716;23.344;2023-04-22T14:22:55;4.70;;;1.87;;
64667;SDS011;51077;42.716;23.344;2023-04-22T14:25:25;4.90;;;1.98;;
64667;SDS011;51077;42.716;23.344;2023-04-22T14:27:50;2.87;;;1.40;;
64667;SDS011;51077;42.716;23.344;2023-04-22T14:30:16;3.60;;;1.67;;
64667;SDS011;51077;42.716;23.344;2023-04-22T14:32:42;5.93;;;2.10;;
64667;SDS011;51077;42.716;23.344;2023-04-22T14:35:08;7.10;;;1.88;;
64667;SDS011;51077;42.716;23.344;2023-04-22T14:37:33;3.90;;;1.70;;
64667;SDS011;51077;42.716;23.344;2023-04-22T14:40:00;3.78;;;1.58;;
64667;SDS011;51077;42.716;23.344;2023-04-22T14:42:26;4.67;;;2.00;;
64667;SDS011;51077;42.716;23.344;2023-04-22T14:44:52;4.35;;;1.63;;
64667;SDS011;51077;42.716;23.344;2023-04-22T14:47:17;4.20;;;1.80;;
64667;SDS011;51077;42.716;23.344;2023-04-22T14:49:43;2.97;;;1.73;;